createdAt,value
2018-11-27T00:00:22.782Z,93.30
2018-11-27T00:02:52.103Z,94.67
2018-11-27T00:05:20.419Z,95.15
2018-11-27T00:07:48.755Z,94.84
2018-11-27T00:10:17.040Z,94.69
2018-11-27T00:12:45.537Z,95.12
2018-11-27T00:15:14.092Z,94.27
2018-11-27T00:17:42.464Z,95.28
2018-11-27T00:20:13.087Z,94.76
2018-11-27T00:22:41.585Z,94.61
2018-11-27T00:25:12.914Z,93.87
2018-11-27T00:27:41.345Z,93.78
2018-11-27T00:30:12.568Z,94.12
2018-11-27T00:32:40.945Z,93.74
2018-11-27T00:35:12.300Z,93.43
2018-11-27T00:37:40.665Z,93.52
2018-11-27T00:40:12.392Z,93.14
2018-11-27T00:42:40.830Z,93.60
2018-11-27T00:45:11.424Z,93.15
2018-11-27T00:47:39.791Z,92.63
2018-11-27T00:50:10.936Z,93.09
2018-11-27T00:52:39.618Z,92.48
2018-11-27T00:55:09.520Z,92.35
2018-11-27T00:57:38.098Z,92.15
2018-11-27T01:00:10.827Z,92.07
2018-11-27T01:02:39.225Z,92.08
2018-11-27T01:05:09.346Z,91.10
2018-11-27T01:07:37.811Z,92.44
2018-11-27T01:10:09.608Z,92.01
2018-11-27T01:12:43.898Z,91.36
2018-11-27T01:15:12.981Z,91.73
2018-11-27T01:17:42.765Z,91.96
2018-11-27T01:20:17.385Z,92.02
2018-11-27T01:22:45.786Z,91.72
2018-11-27T01:25:14.224Z,90.44
2018-11-27T01:27:42.627Z,91.13
2018-11-27T01:30:16.037Z,91.89
2018-11-27T01:32:44.532Z,91.94
2018-11-27T01:35:14.126Z,91.53
2018-11-27T01:37:42.497Z,91.28
2018-11-27T01:40:19.991Z,91.84
2018-11-27T01:42:49.375Z,91.42
2018-11-27T01:45:18.884Z,92.22
2018-11-27T01:47:47.660Z,91.89
2018-11-27T01:50:16.765Z,91.06
2018-11-27T01:52:45.086Z,91.56
2018-11-27T01:55:15.244Z,91.77
2018-11-27T01:57:43.765Z,90.83
2018-11-27T02:00:21.984Z,90.96
2018-11-27T02:02:50.637Z,91.10
2018-11-27T02:05:19.008Z,90.92
2018-11-27T02:07:47.429Z,91.00
2018-11-27T02:10:15.871Z,90.76
2018-11-27T02:12:45.292Z,90.48
2018-11-27T02:15:15.997Z,90.73
2018-11-27T02:17:44.345Z,90.61
2018-11-27T02:20:13.092Z,90.18
2018-11-27T02:22:41.611Z,90.37
2018-11-27T02:25:13.614Z,90.86
2018-11-27T02:27:41.910Z,90.25
2018-11-27T02:30:11.921Z,91.13
2018-11-27T02:32:40.263Z,90.15
2018-11-27T02:35:10.319Z,90.08
2018-11-27T02:37:38.729Z,90.68
2018-11-27T02:40:09.595Z,89.30
2018-11-27T02:42:38.074Z,90.01
2018-11-27T02:45:08.229Z,90.68
2018-11-27T02:47:36.549Z,90.17
2018-11-27T02:50:05.759Z,90.41
2018-11-27T02:52:34.123Z,89.84
2018-11-27T02:55:02.518Z,89.70
2018-11-27T02:57:30.998Z,90.01
2018-11-27T02:59:59.409Z,91.05
2018-11-27T03:02:27.734Z,89.73
2018-11-27T03:04:56.038Z,90.34
2018-11-27T03:07:24.316Z,89.49
2018-11-27T03:09:52.612Z,90.63
2018-11-27T03:12:20.905Z,91.61
2018-11-27T03:14:49.217Z,89.95
2018-11-27T03:17:17.548Z,90.20
2018-11-27T03:19:46.089Z,90.96
2018-11-27T03:22:14.440Z,91.17
2018-11-27T03:24:42.840Z,90.62
2018-11-27T03:27:11.221Z,91.04
2018-11-27T03:29:39.607Z,91.17
2018-11-27T03:32:07.960Z,91.21
2018-11-27T03:34:36.284Z,90.88
2018-11-27T03:37:04.655Z,91.35
2018-11-27T03:39:32.973Z,88.95
2018-11-27T03:42:01.414Z,90.54
2018-11-27T03:44:29.768Z,90.54
2018-11-27T03:46:58.106Z,90.54
2018-11-27T03:49:26.524Z,90.87
2018-11-27T03:51:54.828Z,89.77
2018-11-27T03:54:23.153Z,89.87
2018-11-27T03:56:51.449Z,90.61
2018-11-27T03:59:19.797Z,90.42
2018-11-27T04:01:48.205Z,91.37
2018-11-27T04:04:16.511Z,90.74
2018-11-27T04:06:44.860Z,90.54
2018-11-27T04:09:13.183Z,90.02
2018-11-27T04:11:41.637Z,90.32
2018-11-27T04:14:09.977Z,90.07
2018-11-27T04:16:38.370Z,89.39
2018-11-27T04:19:06.801Z,89.95
2018-11-27T04:21:35.144Z,89.95
2018-11-27T04:24:03.501Z,89.58
2018-11-27T04:26:32.075Z,89.08
2018-11-27T04:29:00.427Z,89.71
2018-11-27T04:31:28.835Z,89.37
2018-11-27T04:33:57.194Z,90.17
2018-11-27T04:36:25.607Z,90.14
2018-11-27T04:38:53.884Z,89.98
2018-11-27T04:41:22.311Z,89.69
2018-11-27T04:43:50.700Z,90.12
2018-11-27T04:46:19.017Z,89.00
2018-11-27T04:48:47.335Z,90.31
2018-11-27T04:51:15.763Z,90.42
2018-11-27T04:53:44.052Z,89.91
2018-11-27T04:56:12.377Z,89.72
2018-11-27T04:58:40.748Z,90.33
2018-11-27T05:01:09.162Z,90.27
2018-11-27T05:03:37.502Z,90.28
2018-11-27T05:06:06.008Z,90.08
2018-11-27T05:08:34.363Z,89.45
2018-11-27T05:11:02.671Z,90.09
2018-11-27T05:13:32.219Z,90.51
2018-11-27T05:15:59.410Z,89.57
2018-11-27T05:18:27.778Z,89.66
2018-11-27T05:20:56.093Z,89.12
2018-11-27T05:23:24.413Z,90.00
2018-11-27T05:25:53.177Z,89.67
2018-11-27T05:28:21.587Z,89.81
2018-11-27T05:30:49.989Z,89.23
2018-11-27T05:33:18.360Z,90.52
2018-11-27T05:35:46.740Z,90.71
2018-11-27T05:38:15.104Z,90.82
2018-11-27T05:40:43.493Z,90.20
2018-11-27T05:43:11.837Z,89.86
2018-11-27T05:45:40.330Z,89.59
2018-11-27T05:48:08.717Z,90.24
2018-11-27T05:50:37.167Z,90.08
2018-11-27T05:53:06.185Z,89.96
2018-11-27T05:55:34.577Z,88.81
2018-11-27T05:58:02.875Z,88.51
2018-11-27T06:00:31.228Z,89.52
2018-11-27T06:03:01.186Z,89.93
2018-11-27T06:05:29.785Z,89.45
2018-11-27T06:07:58.119Z,89.40
2018-11-27T06:10:26.484Z,89.95
2018-11-27T06:12:54.881Z,90.94
2018-11-27T06:15:24.173Z,90.84
2018-11-27T06:17:55.823Z,91.01
2018-11-27T06:20:24.293Z,90.10
2018-11-27T06:22:53.616Z,90.92
2018-11-27T06:25:23.227Z,90.46
2018-11-27T06:27:53.387Z,90.77
2018-11-27T06:30:23.997Z,90.31
2018-11-27T06:32:52.456Z,90.34
2018-11-27T06:35:23.022Z,90.87
2018-11-27T06:37:51.650Z,90.73
2018-11-27T06:40:21.241Z,91.44
2018-11-27T06:42:49.688Z,92.09
2018-11-27T06:45:19.878Z,91.15
2018-11-27T06:47:50.824Z,92.08
2018-11-27T06:50:19.896Z,92.33
2018-11-27T06:52:48.345Z,91.99
2018-11-27T06:55:18.070Z,92.49
2018-11-27T06:57:46.421Z,93.39
2018-11-27T07:00:17.122Z,92.84
2018-11-27T07:02:45.533Z,93.11
2018-11-27T07:05:14.475Z,94.46
2018-11-27T07:07:43.619Z,94.03
2018-11-27T07:10:20.951Z,93.08
2018-11-27T07:12:50.977Z,93.94
2018-11-27T07:15:20.777Z,93.76
2018-11-27T07:17:49.364Z,95.04
2018-11-27T07:21:44.581Z,95.05
2018-11-27T07:24:13.046Z,95.80
2018-11-27T07:26:41.573Z,95.55
2018-11-27T07:29:09.950Z,95.82
2018-11-27T07:31:38.341Z,95.99
2018-11-27T07:34:06.851Z,95.93
2018-11-27T07:36:35.368Z,95.92
2018-11-27T07:39:05.270Z,96.50
2018-11-27T07:41:34.191Z,96.93
2018-11-27T07:44:04.615Z,97.15
2018-11-27T07:46:33.004Z,96.12
2018-11-27T07:49:01.842Z,96.00
2018-11-27T07:51:30.374Z,94.81
2018-11-27T07:53:58.672Z,94.62
2018-11-27T07:56:27.045Z,95.28
2018-11-27T07:58:55.537Z,95.24
2018-11-27T08:01:23.848Z,94.90
2018-11-27T08:03:52.131Z,94.34
2018-11-27T08:06:20.372Z,93.42
2018-11-27T08:08:48.622Z,92.54
2018-11-27T08:11:16.867Z,92.17
2018-11-27T08:13:45.122Z,91.89
2018-11-27T08:16:13.350Z,91.55
2018-11-27T08:18:41.615Z,89.96
2018-11-27T08:21:09.879Z,90.76
2018-11-27T08:23:38.246Z,89.50
2018-11-27T08:26:06.983Z,89.97
2018-11-27T08:28:35.339Z,90.04
2018-11-27T08:31:03.673Z,89.31
2018-11-27T08:33:31.985Z,89.53
2018-11-27T08:36:00.331Z,89.40
2018-11-27T08:38:28.621Z,88.57
2018-11-27T08:40:56.886Z,88.95
2018-11-27T08:43:25.268Z,89.55
2018-11-27T08:45:53.483Z,88.32
2018-11-27T08:48:21.769Z,88.65
2018-11-27T08:50:50.038Z,88.02
2018-11-27T08:53:18.284Z,87.55
2018-11-27T08:55:46.551Z,88.22
2018-11-27T08:58:20.522Z,87.91
2018-11-27T09:00:48.909Z,88.91
2018-11-27T09:03:17.208Z,89.14
2018-11-27T09:05:45.460Z,88.41
2018-11-27T09:08:13.727Z,88.00
2018-11-27T09:10:41.985Z,86.40
2018-11-27T09:13:10.233Z,86.46
2018-11-27T09:15:38.530Z,85.78
2018-11-27T09:18:17.999Z,85.47
2018-11-27T09:20:46.273Z,86.21
2018-11-27T09:23:14.537Z,86.23
2018-11-27T09:25:42.843Z,85.62
2018-11-27T09:28:11.131Z,85.17
2018-11-27T09:30:39.471Z,85.42
2018-11-27T09:33:08.468Z,85.46
2018-11-27T09:35:36.833Z,84.97
2018-11-27T09:38:05.253Z,84.58
2018-11-27T09:40:33.539Z,83.86
2018-11-27T09:43:01.800Z,84.23
2018-11-27T09:45:30.104Z,84.43
2018-11-27T09:47:59.062Z,84.05
2018-11-27T09:50:27.307Z,84.14
2018-11-27T09:52:55.610Z,82.55
2018-11-27T09:55:27.540Z,82.24
2018-11-27T09:57:58.995Z,83.50
2018-11-27T10:00:27.468Z,83.72
2018-11-27T10:02:57.007Z,83.49
2018-11-27T10:05:25.291Z,82.37
2018-11-27T10:07:53.576Z,83.40
2018-11-27T10:10:24.228Z,83.42
2018-11-27T10:12:52.579Z,83.84
2018-11-27T10:15:23.141Z,83.00
2018-11-27T10:17:53.627Z,84.15
2018-11-27T10:20:23.135Z,83.39
2018-11-27T10:22:51.411Z,82.78
2018-11-27T10:25:19.649Z,82.89
2018-11-27T10:27:47.913Z,82.23
2018-11-27T10:30:21.295Z,82.08
2018-11-27T10:32:50.463Z,79.34
2018-11-27T10:35:28.636Z,80.88
2018-11-27T10:37:56.972Z,81.88
2018-11-27T10:40:25.252Z,82.12
2018-11-27T10:42:53.675Z,83.35
2018-11-27T10:45:22.801Z,82.20
2018-11-27T10:47:54.427Z,82.82
2018-11-27T10:50:23.302Z,83.60
2018-11-27T10:52:56.472Z,82.36
2018-11-27T10:55:24.867Z,83.52
2018-11-27T10:57:53.284Z,83.05
2018-11-27T11:00:29.766Z,82.64
2018-11-27T11:03:03.373Z,83.33
2018-11-27T11:05:33.464Z,82.77
2018-11-27T11:08:01.775Z,82.61
2018-11-27T11:10:30.017Z,82.98
2018-11-27T11:12:58.423Z,82.29
2018-11-27T11:15:26.989Z,81.23
2018-11-27T11:17:55.322Z,79.81
2018-11-27T11:20:24.355Z,81.56
2018-11-27T11:22:52.634Z,80.41
2018-11-27T11:25:22.117Z,81.30
2018-11-27T11:27:58.413Z,80.71
2018-11-27T11:30:26.632Z,81.56
2018-11-27T11:32:54.890Z,80.81
2018-11-27T11:35:23.161Z,81.57
2018-11-27T11:37:51.482Z,81.08
2018-11-27T11:40:22.927Z,81.07
2018-11-27T11:42:53.424Z,80.67
2018-11-27T11:45:21.651Z,80.58
2018-11-27T11:47:49.919Z,80.62
2018-11-27T11:50:22.239Z,79.77
2018-11-27T11:52:51.936Z,80.50
2018-11-27T11:55:20.552Z,79.60
2018-11-27T11:57:48.799Z,81.22
2018-11-27T12:00:23.456Z,79.86
2018-11-27T12:02:51.712Z,80.86
2018-11-27T12:05:24.885Z,80.80
2018-11-27T12:07:48.686Z,80.30
2018-11-27T12:10:17.231Z,79.85
2018-11-27T12:12:46.535Z,81.23
2018-11-27T12:15:15.907Z,79.46
2018-11-27T12:17:44.694Z,79.37
2018-11-27T12:20:14.106Z,78.18
2018-11-27T12:22:44.148Z,81.38
2018-11-27T12:25:13.338Z,77.29
2018-11-27T12:27:41.671Z,78.16
2018-11-27T12:30:12.185Z,78.18
2018-11-27T12:32:40.447Z,78.39
2018-11-27T12:35:09.621Z,77.60
2018-11-27T12:37:38.196Z,77.91
2018-11-27T12:40:10.453Z,77.96
2018-11-27T12:42:38.858Z,78.85
2018-11-27T12:45:09.198Z,79.11
2018-11-27T12:47:37.469Z,79.62
2018-11-27T12:50:10.256Z,78.30
2018-11-27T12:52:38.703Z,79.54
2018-11-27T12:55:08.968Z,78.64
2018-11-27T12:57:37.252Z,78.96
2018-11-27T13:00:14.347Z,79.57
2018-11-27T13:02:42.726Z,78.91
2018-11-27T13:05:15.158Z,79.22
2018-11-27T13:07:43.526Z,79.21
2018-11-27T13:10:14.941Z,79.54
2018-11-27T13:12:43.647Z,78.71
2018-11-27T13:15:16.067Z,78.86
2018-11-27T13:17:44.424Z,79.03
2018-11-27T13:20:14.150Z,77.85
2018-11-27T13:22:43.502Z,78.77
2018-11-27T13:25:14.966Z,78.61
2018-11-27T13:27:43.216Z,78.37
2018-11-27T13:30:16.716Z,79.37
2018-11-27T13:32:46.363Z,79.67
2018-11-27T13:35:14.779Z,79.40
2018-11-27T13:37:43.024Z,80.57
2018-11-27T13:40:12.455Z,79.14
2018-11-27T13:42:41.519Z,80.06
2018-11-27T13:45:11.420Z,79.30
2018-11-27T13:47:39.656Z,80.56
2018-11-27T13:50:14.356Z,79.90
2018-11-27T13:52:42.769Z,78.80
2018-11-27T13:55:17.417Z,78.51
2018-11-27T13:57:45.742Z,78.26
2018-11-27T14:00:16.200Z,79.82
2018-11-27T14:02:46.528Z,80.69
2018-11-27T14:05:16.633Z,78.86
2018-11-27T14:07:45.086Z,80.19
2018-11-27T14:10:13.581Z,78.28
2018-11-27T14:12:41.990Z,80.34
2018-11-27T14:15:15.453Z,80.81
2018-11-27T14:17:43.896Z,79.74
2018-11-27T14:20:12.443Z,79.95
2018-11-27T14:22:40.797Z,81.03
2018-11-27T14:25:11.734Z,80.46
2018-11-27T14:27:40.180Z,81.57
2018-11-27T14:30:13.575Z,81.50
2018-11-27T14:32:41.895Z,82.16
2018-11-27T14:35:10.671Z,80.48
2018-11-27T14:37:39.192Z,81.61
2018-11-27T14:40:12.230Z,82.40
2018-11-27T14:42:40.745Z,82.48
2018-11-27T14:45:12.872Z,81.17
2018-11-27T14:47:41.193Z,81.62
2018-11-27T14:50:11.064Z,81.96
2018-11-27T14:52:39.534Z,82.49
2018-11-27T14:55:09.900Z,81.77
2018-11-27T14:57:38.214Z,80.94
2018-11-27T15:00:10.174Z,82.34
2018-11-27T15:02:38.475Z,82.19
2018-11-27T15:05:10.409Z,82.49
2018-11-27T15:07:38.908Z,83.35
2018-11-27T15:10:10.447Z,83.00
2018-11-27T15:12:38.929Z,83.43
2018-11-27T15:15:09.061Z,82.63
2018-11-27T15:17:37.617Z,83.80
2018-11-27T15:20:12.526Z,83.46
2018-11-27T15:22:40.927Z,84.17
2018-11-27T15:25:09.522Z,83.99
2018-11-27T15:27:39.455Z,82.65
2018-11-27T15:30:11.721Z,83.57
2018-11-27T15:32:40.034Z,82.66
2018-11-27T15:35:08.618Z,84.23
2018-11-27T15:37:36.949Z,83.58
2018-11-27T15:40:08.053Z,83.62
2018-11-27T15:42:36.451Z,84.13
2018-11-27T15:45:05.862Z,84.75
2018-11-27T15:47:34.232Z,85.31
2018-11-27T15:50:02.563Z,86.15
2018-11-27T15:52:31.253Z,85.56
2018-11-27T15:54:59.700Z,85.34
2018-11-27T15:57:28.037Z,85.11
2018-11-27T15:59:56.494Z,85.86
2018-11-27T16:02:25.000Z,84.85
2018-11-27T16:04:53.437Z,85.63
2018-11-27T16:07:21.957Z,86.52
2018-11-27T16:09:50.425Z,85.08
2018-11-27T16:12:18.809Z,86.03
2018-11-27T16:14:47.285Z,85.83
2018-11-27T16:17:15.674Z,85.90
2018-11-27T16:19:44.022Z,85.76
2018-11-27T16:22:12.442Z,86.17
2018-11-27T16:24:40.775Z,85.75
2018-11-27T16:27:09.162Z,85.33
2018-11-27T16:29:37.582Z,86.82
2018-11-27T16:32:06.242Z,84.75
2018-11-27T16:34:34.728Z,86.25
2018-11-27T16:37:03.037Z,85.78
2018-11-27T16:45:30.778Z,85.60
2018-11-27T16:48:00.852Z,85.51
2018-11-27T16:50:29.540Z,85.27
2018-11-27T16:52:57.935Z,84.29
2018-11-27T16:55:26.285Z,84.86
2018-11-27T16:57:54.645Z,83.26
2018-11-27T17:00:26.246Z,81.41
2018-11-27T17:02:57.035Z,83.25
2018-11-27T17:05:26.523Z,83.12
2018-11-27T17:07:55.127Z,83.84
2018-11-27T17:10:23.712Z,84.96
2018-11-27T17:12:53.800Z,85.77
2018-11-27T17:15:23.463Z,85.30
2018-11-27T17:17:52.435Z,85.39
2018-11-27T17:20:26.082Z,84.39
2018-11-27T17:22:55.541Z,84.83
2018-11-27T17:25:24.286Z,83.90
2018-11-27T17:27:53.799Z,84.10
2018-11-27T17:30:26.842Z,84.63
2018-11-27T17:32:55.887Z,85.02
2018-11-27T17:35:25.367Z,85.39
2018-11-27T17:37:53.856Z,84.86
2018-11-27T17:40:22.360Z,84.63
2018-11-27T17:42:51.151Z,84.45
2018-11-27T17:45:20.042Z,84.63
2018-11-27T17:47:48.781Z,84.37
2018-11-27T17:50:18.145Z,84.41
2018-11-27T17:52:47.117Z,84.99
2018-11-27T17:55:15.711Z,83.10
2018-11-27T17:57:44.450Z,84.28
2018-11-27T18:00:19.080Z,84.54
2018-11-27T18:02:50.180Z,85.89
2018-11-27T18:05:18.937Z,85.23
2018-11-27T18:07:48.178Z,83.66
2018-11-27T18:10:16.630Z,85.50
2018-11-27T18:12:45.299Z,84.55
2018-11-27T18:15:19.780Z,84.66
2018-11-27T18:17:48.298Z,85.13
2018-11-27T18:20:16.594Z,84.66
2018-11-27T18:22:45.058Z,83.94
2018-11-27T18:25:17.312Z,85.67
2018-11-27T18:27:47.065Z,84.35
2018-11-27T18:30:18.616Z,84.71
2018-11-27T18:32:47.084Z,84.71
2018-11-27T18:35:16.663Z,83.96
2018-11-27T18:37:45.746Z,83.49
2018-11-27T18:40:15.003Z,83.67
2018-11-27T18:42:43.903Z,84.57
2018-11-27T18:45:15.362Z,83.45
2018-11-27T18:47:43.786Z,82.98
2018-11-27T18:50:12.449Z,83.17
2018-11-27T18:52:41.286Z,84.03
2018-11-27T18:55:11.849Z,84.01
2018-11-27T18:57:40.997Z,84.03
2018-11-27T19:00:20.835Z,82.35
2018-11-27T19:02:49.967Z,82.23
2018-11-27T19:05:18.582Z,83.86
2018-11-27T19:07:47.203Z,83.30
2018-11-27T19:10:17.710Z,83.16
2018-11-27T19:12:47.007Z,83.74
2018-11-27T19:15:21.034Z,84.34
2018-11-27T19:17:52.272Z,84.69
2018-11-27T19:20:20.774Z,84.27
2018-11-27T19:22:49.366Z,84.02
2018-11-27T19:25:18.142Z,83.61
2018-11-27T19:27:47.103Z,83.44
2018-11-27T19:30:19.986Z,83.80
2018-11-27T19:32:48.629Z,83.91
2018-11-27T19:35:18.217Z,84.83
2018-11-27T19:37:47.694Z,84.20
2018-11-27T19:40:17.524Z,84.01
2018-11-27T19:42:46.119Z,84.27
2018-11-27T19:45:23.809Z,84.95
2018-11-27T19:47:52.883Z,84.77
2018-11-27T19:50:22.604Z,84.92
2018-11-27T19:52:53.532Z,83.94
2018-11-27T19:55:22.221Z,84.23
2018-11-27T19:57:50.911Z,84.48
2018-11-27T20:00:21.396Z,84.62
2018-11-27T20:02:50.140Z,83.92
2018-11-27T20:05:21.828Z,83.65
2018-11-27T20:07:53.749Z,83.04
2018-11-27T20:10:22.373Z,83.85
2018-11-27T20:12:50.866Z,83.78
2018-11-27T20:15:21.386Z,83.46
2018-11-27T20:17:50.785Z,83.40
2018-11-27T20:20:23.051Z,82.86
2018-11-27T20:22:51.571Z,83.10
2018-11-27T20:25:21.240Z,83.64
2018-11-27T20:27:49.831Z,82.49
2018-11-27T20:30:20.200Z,83.18
2018-11-27T20:32:52.892Z,83.53
2018-11-27T20:35:21.321Z,83.92
2018-11-27T20:37:51.008Z,83.67
2018-11-27T20:40:20.111Z,83.34
2018-11-27T20:42:48.784Z,83.77
2018-11-27T20:45:22.304Z,83.42
2018-11-27T20:47:58.118Z,82.64
2018-11-27T20:50:26.682Z,83.49
2018-11-27T20:52:55.260Z,83.71
2018-11-27T20:55:23.680Z,83.63
2018-11-27T20:57:58.192Z,84.31
2018-11-27T21:00:31.096Z,83.99
2018-11-27T21:03:00.573Z,83.47
2018-11-27T21:05:28.923Z,83.03
2018-11-27T21:07:57.303Z,83.76
2018-11-27T21:10:25.657Z,83.36
2018-11-27T21:12:54.093Z,84.03
2018-11-27T21:15:22.602Z,83.83
2018-11-27T21:17:50.950Z,83.60
2018-11-27T21:20:19.722Z,83.85
2018-11-27T21:22:47.933Z,83.84
2018-11-27T21:25:18.286Z,83.21
2018-11-27T21:27:48.576Z,84.04
2018-11-27T21:30:17.876Z,83.89
2018-11-27T21:32:46.268Z,83.68
2018-11-27T21:35:15.657Z,83.49
2018-11-27T21:37:44.069Z,83.69
2018-11-27T21:40:14.709Z,84.01
2018-11-27T21:42:43.012Z,83.12
2018-11-27T21:45:17.603Z,83.89
2018-11-27T21:47:46.183Z,84.12
2018-11-27T21:50:16.901Z,83.36
2018-11-27T21:52:45.181Z,83.66
2018-11-27T21:55:14.548Z,84.42
2018-11-27T21:57:42.948Z,82.87
2018-11-27T22:00:15.291Z,82.93
2018-11-27T22:02:43.654Z,82.33
2018-11-27T22:05:12.572Z,83.21
2018-11-27T22:07:40.977Z,83.01
2018-11-27T22:10:10.376Z,82.99
2018-11-27T22:12:38.680Z,83.08
2018-11-27T22:15:09.703Z,83.16
2018-11-27T22:17:38.093Z,82.81
2018-11-27T22:20:08.361Z,82.63
2018-11-27T22:22:36.766Z,83.78
2018-11-27T22:25:06.503Z,84.51
2018-11-27T22:27:34.970Z,83.63
2018-11-27T22:30:03.434Z,82.45
2018-11-27T22:32:31.757Z,83.55
2018-11-27T22:35:00.060Z,83.97
2018-11-27T22:37:28.483Z,84.47
2018-11-27T22:39:56.768Z,84.59
2018-11-27T22:42:25.092Z,83.80
2018-11-27T22:44:53.424Z,83.98
2018-11-27T22:47:21.740Z,84.20
2018-11-27T22:49:50.053Z,83.81
2018-11-27T22:52:18.405Z,84.73
2018-11-27T22:54:46.905Z,84.80
2018-11-27T22:57:15.221Z,85.09
2018-11-27T22:59:43.692Z,85.86
2018-11-27T23:02:13.133Z,85.58
2018-11-27T23:04:41.512Z,85.30
2018-11-27T23:07:14.794Z,85.26
2018-11-27T23:09:43.243Z,85.52
2018-11-27T23:12:11.539Z,84.54
2018-11-27T23:14:39.920Z,85.66
2018-11-27T23:17:08.285Z,85.84
2018-11-27T23:19:36.607Z,85.25
2018-11-27T23:22:04.917Z,86.18
2018-11-27T23:24:33.465Z,85.78
2018-11-27T23:27:04.817Z,85.97
2018-11-27T23:29:33.196Z,85.75
2018-11-27T23:32:09.733Z,85.23
2018-11-27T23:34:38.119Z,85.55
2018-11-27T23:37:06.472Z,85.09
2018-11-27T23:39:34.789Z,85.86
2018-11-27T23:42:03.163Z,86.16
2018-11-27T23:44:31.617Z,85.08
2018-11-27T23:46:59.993Z,84.86
2018-11-27T23:49:28.376Z,84.60
2018-11-27T23:51:56.725Z,84.76
2018-11-27T23:54:25.056Z,84.72
2018-11-27T23:56:53.696Z,84.50
2018-11-27T23:59:22.052Z,83.96
